logo
App data

Alone in the Dark: Illumination

A darkness has fallen over the town of Lorwich. Monstrous hordes emerge from beyond the realm of nightmares to sow chaos on the land. As one of four heroes, you must battle the minions of the old ones with the force of arms, and the power of illumination.
Store | Hub | SteamDB
Developer: Pure FPS Publisher: THQ Nordic
Genre: Action, Adventure
Languages: English, French, Italian, German, Spanish - Spain
Tags: Action (34), Adventure (29), Horror (26), Co-op (21), Multiplayer (18), Shooter (17), Survival Horror (17), Illuminati (13), Lovecraftian (12), Third Person (9), Third-Person Shooter (6), Singleplayer (5)
Category: Single-player, Multi-player, Co-op, Steam Achievements, Steam Trading Cards, Steam Leaderboards
Release date: Jun 11, 2015
Price: $19.99
Old userscore: 21% Owners: 50,000 .. 100,000
Followers: 3,671
Peak concurrent players yesterday: 2
Playtime total: 01:46 (average) 01:46 (median)

Steam Spy is still in beta, so expect major bugs.

Owners data:

Access restricted.

This feature is only available to users with special access rights. Sorry.

If you want to proceed, you need to register or log in first and then back Steam Spy on Patreon. Look for Indie or Pro pledge.

Don't forget to use the same email as on Steam Spy!

If you've recently backed Steam Spy on Patreon, please note, that it might take around 15 minutes for your access rights to sync. In most cases you'll need to re-login on Steam Spy too.

Audience in 2 weeks:

Access restricted.

This feature is only available to users with special access rights. Sorry.

If you want to proceed, you need to register or log in first and then back Steam Spy on Patreon. Look for Indie or Pro pledge.

Don't forget to use the same email as on Steam Spy!

If you've recently backed Steam Spy on Patreon, please note, that it might take around 15 minutes for your access rights to sync. In most cases you'll need to re-login on Steam Spy too.

Peak daily concurrent players:

CCU data courtesy of SteamDB. Used with permission.

Hourly concurrent players:

Daily Twitch stats:

Hourly Twitch stats:

Followers over time

Access restricted.

This feature is only available to users with special access rights. Sorry.

If you want to proceed, you need to register or log in first and then back Steam Spy on Patreon. Look for Indie or Pro pledge.

Don't forget to use the same email as on Steam Spy!

If you've recently backed Steam Spy on Patreon, please note, that it might take around 15 minutes for your access rights to sync. In most cases you'll need to re-login on Steam Spy too.

Views for top 50 videos on YouTube for this game:

Games similar to this one:

# Game Release date
Price
Score rank
(Userscore / Metascore)
Owners
Players
Playtime (Median)
1 The Next World Mar 7, 2016 $12.99N/A (N/A)20,000 .. 50,0000%00:00 (00:00)
2 Aaero Apr 11, 2017 $14.99N/A (N/A)200,000 .. 500,0000%00:00 (00:00)
3 Momento Temporis: Light from the Deep Oct 27, 2016 $4.99N/A (N/A)0 .. 20,0000%00:00 (00:00)
4 Brut@l Feb 9, 2017 $14.99N/A (N/A/66%)20,000 .. 50,0000%00:00 (00:00)
5 Legends of the Universe - StarCore Jul 25, 2016 $1.99N/A (N/A)50,000 .. 100,0000%00:00 (00:00)
6 Lightblade VR May 31, 2016 $3.99N/A (N/A)100,000 .. 200,0000%00:00 (00:00)
7 Phantaruk Aug 16, 2016 $4.99N/A (N/A/53%)20,000 .. 50,0000%00:00 (00:00)
8 Plancon: Space Conflict Aug 8, 2016 $6.99N/A (N/A)20,000 .. 50,0000%00:00 (00:00)
9 NotCoD May 19, 2016 N/AN/A (N/A)0 .. 20,0000%00:00 (00:00)
10 forma.8 Feb 23, 2017 $9.99N/A (N/A)0 .. 20,0000%00:00 (00:00)
11 Bladestar Jan 15, 2016 $4.99N/A (N/A)0 .. 20,00020%01:29 (00:44)
12 Westboro Apr 27, 2017 $3.99N/A (N/A)100,000 .. 200,0000%00:00 (00:00)
13 Reverse x Reverse Dec 10, 2015 $9.99N/A (N/A)0 .. 20,0000%00:00 (00:00)
14 Raiden Legacy - Steam Edition Dec 10, 2015 $9.99N/A (N/A)20,000 .. 50,0000%00:00 (00:00)
15 Charlie Murder May 12, 2017 $9.99N/A (N/A)50,000 .. 100,0000%00:00 (00:00)
16 Flinthook Apr 18, 2017 $14.99N/A (N/A/80%)100,000 .. 200,0000%00:00 (00:00)
17 Mighty Gunvolt Sep 29, 2015 $4.99N/A (N/A)50,000 .. 100,0000%00:00 (00:00)
18 TankZone Battle Sep 21, 2015 $1.99N/A (N/A)0 .. 20,0000%00:00 (00:00)
19 Rosenkreuzstilette Feb 2, 2017 $9.99N/A (N/A)20,000 .. 50,0000%00:00 (00:00)
20 Nongünz May 19, 2017 N/AN/A (N/A)20,000 .. 50,0000%00:00 (00:00)
21 iStorm Mar 16, 2017 FreeN/A (N/A)0 .. 20,0000%00:00 (00:00)
22 Polterheist Feb 21, 2017 $4.99N/A (N/A)200,000 .. 500,0000%00:00 (00:00)
23 Immortal Redneck Apr 25, 2017 $19.95N/A (N/A/70%)100,000 .. 200,0001.89%01:59 (00:39)
24 Shovel Knight: Specter of Torment Apr 5, 2017 $9.99N/A (N/A)0 .. 20,0000%00:00 (00:00)
25 Cavern of Time Feb 10, 2017 $3.99N/A (N/A)50,000 .. 100,00025%01:42 (00:34)
26 2 Ninjas 1 Cup Feb 3, 2017 $0.99N/A (N/A)20,000 .. 50,0000%00:00 (00:00)
27 Putrefaction 2: Void Walker May 29, 2017 $4.99N/A (N/A)20,000 .. 50,0000%00:00 (00:00)
28 Caladrius Blaze Jan 12, 2017 $19.99N/A (N/A)20,000 .. 50,0000%00:00 (00:00)
29 Police Quest: SWAT Sep 30, 1995 $5.99N/A (N/A)0 .. 20,0000%00:00 (00:00)
30 Masked Forces Nov 23, 2016 $0.99N/A (N/A)50,000 .. 100,0000%00:00 (00:00)
31 Toukiden 2 Mar 21, 2017 $59.99N/A (N/A/73%)50,000 .. 100,0000%00:00 (00:00)
32 A Rose in the Twilight Apr 11, 2017 $19.99N/A (N/A)20,000 .. 50,0000%00:00 (00:00)
33 NightZ Feb 14, 2017 $0.99N/A (N/A)20,000 .. 50,0000%00:00 (00:00)
34 SPINGUN Nov 11, 2016 $1.99N/A (N/A)20,000 .. 50,0000%00:00 (00:00)
35 Xenus 2. White gold. Nov 23, 2016 $14.99N/A (N/A)20,000 .. 50,0000%00:00 (00:00)
36 Project Root May 1, 2014 $9.99N/A (N/A)20,000 .. 50,0000%00:00 (00:00)
37 Disney Fairies: Tinker Bell's Adventure Oct 6, 2014 $19.99N/A (N/A)0 .. 20,0000%00:00 (00:00)
38 Dusk 12 Aug 22, 2014 $3.99N/A (N/A)50,000 .. 100,00025%00:59 (00:19)
39 Shadowcrypt Jul 7, 2014 $4.99N/A (N/A)20,000 .. 50,0000%00:00 (00:00)
40 Disney Alice in Wonderland Mar 2, 2010 $19.99N/A (N/A/63%)20,000 .. 50,0000%00:00 (00:00)
41 Red Johnson's Chronicles - 1+2 - Steam Special Edition Sep 5, 2014 $9.99N/A (N/A)20,000 .. 50,0000%00:00 (00:00)
42 Vertical Drop Heroes HD Jul 25, 2014 $6.99N/A (N/A/70%)100,000 .. 200,0000%00:00 (00:00)
43 Super Dungeon Bros Nov 1, 2016 $19.99N/A (N/A)20,000 .. 50,0000%00:00 (00:00)
44 Blinding Dark Aug 12, 2014 $9.99N/A (N/A)20,000 .. 50,0000%00:00 (00:00)
45 Disney Princess: My Fairytale Adventure May 25, 2012 $19.99N/A (N/A)0 .. 20,0000%00:00 (00:00)
46 EPOCH Jun 5, 2014 $1.99N/A (N/A)20,000 .. 50,00033.33%00:44 (00:22)
47 The Dishwasher: Vampire Smile May 12, 2017 $9.99N/A (N/A)20,000 .. 50,0000%00:00 (00:00)
48 Zombeer Jan 30, 2015 $4.99N/A (N/A/32%)50,000 .. 100,0000%00:00 (00:00)
49 Deathtrap Dungeon Jun 25, 1998 $6.99N/A (N/A)20,000 .. 50,0000%00:00 (00:00)
50 Epigenesis Aug 1, 2014 FreeN/A (N/A)100,000 .. 200,0000%00:00 (00:00)
51 Kill to Collect Apr 6, 2016 $9.99N/A (N/A/57%)20,000 .. 50,00016.67%00:43 (00:14)
52 Space Ace Apr 29, 1984 $9.99N/A (N/A)0 .. 20,0000%00:00 (00:00)
53 Terminal Velocity May 1, 1995 $6.99N/A (N/A)0 .. 20,0000%00:00 (00:00)
54 Battle For The Sun Jul 22, 2015 $4.99N/A (N/A)0 .. 20,0000%00:00 (00:00)
55 Umihara Kawase Nov 2, 2015 $9.99N/A (N/A)0 .. 20,0000%00:00 (00:00)
56 Princess Kaguya: Legend of the Moon Warrior Aug 4, 2015 $10.99N/A (N/A)0 .. 20,0000%00:00 (00:00)
57 Infinium Strike Jul 14, 2016 $9.99N/A (N/A)0 .. 20,0000%00:00 (00:00)
58 Airport Madness: World Edition May 28, 2015 $9.99N/A (N/A)50,000 .. 100,0000%00:00 (00:00)
59 Predator Simulator May 11, 2015 $7.99N/A (N/A)20,000 .. 50,0000%00:00 (00:00)
60 Xenophage: Alien Bloodsport Dec 29, 1995 N/AN/A (N/A)20,000 .. 50,0000%00:00 (00:00)
61 Stargunner Nov 19, 1996 FreeN/A (N/A)20,000 .. 50,0000%00:00 (00:00)
62 Greed: Black Border Jan 13, 2010 $4.99N/A (N/A)100,000 .. 200,0000%00:00 (00:00)
63 Word Rescue May 1, 1992 $4.99N/A (N/A)0 .. 20,0000%00:00 (00:00)
64 Bio Menace Aug 3, 1993 N/AN/A (N/A)0 .. 20,0000%00:00 (00:00)
65 Arctic Adventure Oct 9, 1991 N/AN/A (N/A)0 .. 20,0000%00:00 (00:00)
66 Caravan Sep 30, 2016 $5.99N/A (N/A)100,000 .. 200,0000%00:00 (00:00)
67 Vintage Year Jan 2, 2015 $3.99N/A (N/A)20,000 .. 50,0000%00:00 (00:00)
68 Guns, Gore & Cannoli Apr 30, 2015 $9.99N/A (N/A/80%)100,000 .. 200,0000%00:00 (00:00)
69 Disney G-Force Jul 21, 2009 $19.99N/A (N/A/61%)0 .. 20,0000%00:00 (00:00)

Tags over time:

Access restricted.

This feature is only available to users with special access rights. Sorry.

If you want to proceed, you need to register or log in first and then back Steam Spy on Patreon. Look for Indie or Pro pledge.

Don't forget to use the same email as on Steam Spy!

If you've recently backed Steam Spy on Patreon, please note, that it might take around 15 minutes for your access rights to sync. In most cases you'll need to re-login on Steam Spy too.

Owners of this game also own:

Access restricted.

This feature is only available to users with special access rights. Sorry.

If you want to proceed, you need to register or log in first and then back Steam Spy on Patreon. Look for Indie or Pro pledge.

Don't forget to use the same email as on Steam Spy!

If you've recently backed Steam Spy on Patreon, please note, that it might take around 15 minutes for your access rights to sync. In most cases you'll need to re-login on Steam Spy too.

Playtime distribution:

Access restricted.

This feature is only available to users with special access rights. Sorry.

If you want to proceed, you need to register or log in first and then back Steam Spy on Patreon. Look for Indie or Pro pledge.

Don't forget to use the same email as on Steam Spy!

If you've recently backed Steam Spy on Patreon, please note, that it might take around 15 minutes for your access rights to sync. In most cases you'll need to re-login on Steam Spy too.

Playtime (2 weeks):

Access restricted.

This feature is only available to users with special access rights. Sorry.

If you want to proceed, you need to register or log in first and then back Steam Spy on Patreon. Look for Indie or Pro pledge.

Don't forget to use the same email as on Steam Spy!

If you've recently backed Steam Spy on Patreon, please note, that it might take around 15 minutes for your access rights to sync. In most cases you'll need to re-login on Steam Spy too.

User reviews:

Login required.

Please register or log in to see this information.